Sacramento, California
Traffic Map
Current Weather Conditions
Sacramento, California
Overcast Haze
Overcast
55°
Feels Like: 55°
Wind Chill: 55° Ceiling: 2500
Heat Index: 55° Visibility: 4mi
Dew Point: 52° Wind: 6mph
Humidity: 89% Direction: 120° (ESE)
Pressure: 29.85in Gusts: 0mph
Raw Report DataKSAC 290953Z AUTO 12005KT 4SM BR OVC025 13/11 A2985 RMK AO2 RAE00 SLP109 P0000 T01280111
Traffic Incident Summary
Active as of:
Severity:
Category:
InformationThere was an issue retrieving the traffic information for this location. Please try a different location or try again shortly.
Advertisements
Track Severe Weather on mobile